CheckWX is a tool to help pilots better visualize weather data.  It is not intended as a substitute for an official pre-flight weather briefing.

15:34:51 UTC

CYZV METAR
Sept-Îles Airport
Sept-Îles, Canada
Current

35 mins ago

CYZV 231500Z 16007KT 30SM OVC240 10/01 A3013 RMK CI8 SLP207
Observed
May-23 @ 15:00 UTC
Wind
  • 160° at 7 KTS
Visibility
30 SM
Flight Rules
VFR
Cloud Levels
  • Overcast at 24,000' AGL
Temperature
10°C / 50°F
Dewpoint
C / 34°F
Humidity
54%
Altimeter
30.13" Hg
Pressure
1020.32 hPa
Previous

35 mins ago

CYZV 231500Z 16007KT 30SM OVC240 10/01 A3013 RMK CI8 SLP207
Observed
May-23 @ 15:00 UTC
Wind
  • 160° at 7 KTS
Visibility
30 SM
Flight Rules
VFR
Cloud Levels
  • Overcast at 24,000' AGL
Temperature
10°C / 50°F
Dewpoint
C / 34°F
Humidity
54%
Altimeter
30.13" Hg
Pressure
1020.32 hPa
Previous

2 hours ago

CYZV 231400Z 16007KT 30SM BKN220 10/01 A3015 RMK CI7 SLP212
Observed
May-23 @ 14:00 UTC
Wind
  • 160° at 7 KTS
Visibility
30 SM
Flight Rules
VFR
Cloud Levels
  • Broken at 22,000' AGL
Temperature
10°C / 50°F
Dewpoint
C / 34°F
Humidity
54%
Altimeter
30.15" Hg
Pressure
1021.02 hPa